East Hardwick, Vermont
Current Conditions -  °F | °C
As of 3:55 AM on Thursday 23 Oct 2014 (Local Time) from KCDA Reporting Station
Drizzle Drizzle  
Wind Chill: 41°   Ceiling: 2200
Heat Index: 46°   Visibility: 10mi
Dew Point: 39°   Wind: 12mph
Humidity: 76%   Direction: 320°NW
Pressure: 29.99"   Gusts: 18mph
Location:  44.52°N, 72.31°W
Report Text: KCDA 230755Z AUTO 32010G16KT 10SM -DZ OVC022 08/04 A2999 RMK AO2 T00800040
Loading
Personal Weather Stations






























Interactive Weather Map
Tropical Storm Tracking
New forecast layout! Learn more

10-Day Weather Forecast

Advertisements
Track Severe Weather on mobile